sensor_id;sensor_type;location;lat;lon;timestamp;pressure;altitude;pressure_sealevel;temperature;humidity
70728;BME280;58314;47.722;17.652;2022-08-23T00:01:53;99987.16;;;15.99;100.00
70728;BME280;58314;47.722;17.652;2022-08-23T00:04:55;99989.34;;;16.05;100.00
70728;BME280;58314;47.722;17.652;2022-08-23T00:07:55;99988.34;;;15.95;100.00
70728;BME280;58314;47.722;17.652;2022-08-23T00:10:56;99993.22;;;16.01;100.00
70728;BME280;58314;47.722;17.652;2022-08-23T00:14:00;99990.19;;;16.06;100.00
70728;BME280;58314;47.722;17.652;2022-08-23T00:17:02;99988.72;;;16.02;100.00
70728;BME280;58314;47.722;17.652;2022-08-23T00:20:04;99987.16;;;15.99;100.00
70728;BME280;58314;47.722;17.652;2022-08-23T00:23:07;99988.00;;;15.99;100.00
70728;BME280;58314;47.722;17.652;2022-08-23T00:26:08;99990.56;;;16.01;100.00
70728;BME280;58314;47.722;17.652;2022-08-23T00:29:08;99994.06;;;16.02;100.00
70728;BME280;58314;47.722;17.652;2022-08-23T00:32:12;99988.22;;;15.96;100.00
70728;BME280;58314;47.722;17.652;2022-08-23T00:35:15;99993.22;;;16.01;100.00
70728;BME280;58314;47.722;17.652;2022-08-23T00:38:17;99985.94;;;16.03;100.00
70728;BME280;58314;47.722;17.652;2022-08-23T00:41:17;99984.94;;;15.93;100.00
70728;BME280;58314;47.722;17.652;2022-08-23T00:44:23;99987.59;;;15.93;100.00
70728;BME280;58314;47.722;17.652;2022-08-23T00:47:43;99987.94;;;15.88;100.00
70728;BME280;58314;47.722;17.652;2022-08-23T00:50:58;99995.38;;;15.96;100.00
70728;BME280;58314;47.722;17.652;2022-08-23T00:54:01;99999.00;;;15.95;100.00
70728;BME280;58314;47.722;17.652;2022-08-23T00:57:08;99983.88;;;15.95;100.00
70728;BME280;58314;47.722;17.652;2022-08-23T01:00:10;99996.72;;;15.90;100.00
70728;BME280;58314;47.722;17.652;2022-08-23T01:03:12;99994.78;;;15.92;100.00
70728;BME280;58314;47.722;17.652;2022-08-23T01:06:15;99994.78;;;15.92;100.00
70728;BME280;58314;47.722;17.652;2022-08-23T01:09:20;99991.13;;;15.93;100.00
70728;BME280;58314;47.722;17.652;2022-08-23T01:12:27;99994.66;;;15.94;100.00
70728;BME280;58314;47.722;17.652;2022-08-23T01:15:41;99989.66;;;15.89;100.00
70728;BME280;58314;47.722;17.652;2022-08-23T01:18:43;99984.59;;;15.97;100.00
70728;BME280;58314;47.722;17.652;2022-08-23T01:21:52;99997.44;;;15.92;100.00
70728;BME280;58314;47.722;17.652;2022-08-23T01:24:56;100007.00;;;15.95;100.00
70728;BME280;58314;47.722;17.652;2022-08-23T01:27:57;100005.22;;;15.95;100.00
70728;BME280;58314;47.722;17.652;2022-08-23T01:31:00;100004.13;;;15.98;100.00
70728;BME280;58314;47.722;17.652;2022-08-23T01:34:07;100008.00;;;15.94;100.00
70728;BME280;58314;47.722;17.652;2022-08-23T01:37:08;100008.84;;;15.94;100.00
70728;BME280;58314;47.722;17.652;2022-08-23T01:40:09;100011.28;;;15.97;100.00
70728;BME280;58314;47.722;17.652;2022-08-23T01:43:11;100010.78;;;15.92;100.00
70728;BME280;58314;47.722;17.652;2022-08-23T01:46:16;100006.91;;;15.96;100.00
70728;BME280;58314;47.722;17.652;2022-08-23T01:49:17;100008.00;;;15.94;100.00
70728;BME280;58314;47.722;17.652;2022-08-23T01:52:18;100016.00;;;15.94;100.00
70728;BME280;58314;47.722;17.652;2022-08-23T01:55:19;100015.94;;;15.82;100.00
70728;BME280;58314;47.722;17.652;2022-08-23T01:58:20;100018.91;;;15.91;100.00
70728;BME280;58314;47.722;17.652;2022-08-23T02:01:21;100017.78;;;15.93;100.00
70728;BME280;58314;47.722;17.652;2022-08-23T02:04:21;100020.31;;;15.84;100.00
70728;BME280;58314;47.722;17.652;2022-08-23T02:07:28;100016.94;;;15.81;100.00
70728;BME280;58314;47.722;17.652;2022-08-23T02:10:29;100009.44;;;15.87;100.00
70728;BME280;58314;47.722;17.652;2022-08-23T02:13:30;100028.75;;;15.77;100.00
70728;BME280;58314;47.722;17.652;2022-08-23T02:16:36;100023.44;;;15.77;100.00
70728;BME280;58314;47.722;17.652;2022-08-23T02:19:38;100019.91;;;15.77;100.00
70728;BME280;58314;47.722;17.652;2022-08-23T02:22:39;100025.56;;;15.72;100.00
70728;BME280;58314;47.722;17.652;2022-08-23T02:25:39;100032.16;;;15.79;100.00
70728;BME280;58314;47.722;17.652;2022-08-23T02:28:40;100028.88;;;15.76;100.00
70728;BME280;58314;47.722;17.652;2022-08-23T02:31:41;100034.00;;;15.79;100.00
70728;BME280;58314;47.722;17.652;2022-08-23T02:34:45;100034.09;;;15.77;100.00
70728;BME280;58314;47.722;17.652;2022-08-23T02:37:46;100036.03;;;15.75;100.00
70728;BME280;58314;47.722;17.652;2022-08-23T02:40:46;100034.28;;;15.74;100.00
70728;BME280;58314;47.722;17.652;2022-08-23T02:43:51;100039.63;;;15.74;100.00
70728;BME280;58314;47.722;17.652;2022-08-23T02:46:52;100034.97;;;15.65;100.00
70728;BME280;58314;47.722;17.652;2022-08-23T02:49:53;100039.56;;;15.63;100.00
70728;BME280;58314;47.722;17.652;2022-08-23T02:52:54;100037.97;;;15.60;100.00
70728;BME280;58314;47.722;17.652;2022-08-23T02:55:55;100053.34;;;15.57;100.00
70728;BME280;58314;47.722;17.652;2022-08-23T02:58:56;100056.59;;;15.49;100.00
70728;BME280;58314;47.722;17.652;2022-08-23T03:01:57;100066.41;;;15.49;100.00
70728;BME280;58314;47.722;17.652;2022-08-23T03:04:57;100069.34;;;15.57;100.00
70728;BME280;58314;47.722;17.652;2022-08-23T03:07:58;100072.53;;;15.62;100.00
70728;BME280;58314;47.722;17.652;2022-08-23T03:10:59;100075.97;;;15.64;100.00
70728;BME280;58314;47.722;17.652;2022-08-23T03:13:59;100071.69;;;15.61;100.00
70728;BME280;58314;47.722;17.652;2022-08-23T03:17:01;100076.19;;;15.61;100.00
70728;BME280;58314;47.722;17.652;2022-08-23T03:20:02;100081.94;;;15.55;100.00
70728;BME280;58314;47.722;17.652;2022-08-23T03:23:03;100084.28;;;15.59;100.00
70728;BME280;58314;47.722;17.652;2022-08-23T03:26:06;100083.19;;;15.62;100.00
70728;BME280;58314;47.722;17.652;2022-08-23T03:29:07;100084.19;;;15.61;100.00
70728;BME280;58314;47.722;17.652;2022-08-23T03:32:07;100085.31;;;15.70;100.00
70728;BME280;58314;47.722;17.652;2022-08-23T03:35:09;100078.38;;;15.67;100.00
70728;BME280;58314;47.722;17.652;2022-08-23T03:38:10;100087.13;;;15.69;100.00
70728;BME280;58314;47.722;17.652;2022-08-23T03:41:11;100086.50;;;15.66;100.00
70728;BME280;58314;47.722;17.652;2022-08-23T03:44:12;100086.38;;;15.67;100.00
70728;BME280;58314;47.722;17.652;2022-08-23T03:47:13;100090.31;;;15.74;100.00
70728;BME280;58314;47.722;17.652;2022-08-23T03:50:13;100095.78;;;15.60;100.00
70728;BME280;58314;47.722;17.652;2022-08-23T03:53:15;100102.38;;;15.67;100.00
70728;BME280;58314;47.722;17.652;2022-08-23T03:56:34;100107.19;;;15.62;100.00
70728;BME280;58314;47.722;17.652;2022-08-23T03:59:38;100112.53;;;15.62;100.00
70728;BME280;58314;47.722;17.652;2022-08-23T04:02:39;100110.63;;;15.64;100.00
70728;BME280;58314;47.722;17.652;2022-08-23T04:05:40;100117.44;;;15.68;100.00
70728;BME280;58314;47.722;17.652;2022-08-23T04:08:42;100124.59;;;15.68;100.00
70728;BME280;58314;47.722;17.652;2022-08-23T04:11:43;100128.44;;;15.63;100.00
70728;BME280;58314;47.722;17.652;2022-08-23T04:14:44;100130.88;;;15.67;100.00
70728;BME280;58314;47.722;17.652;2022-08-23T04:17:45;100134.72;;;15.75;100.00
70728;BME280;58314;47.722;17.652;2022-08-23T04:20:46;100140.06;;;15.75;100.00
70728;BME280;58314;47.722;17.652;2022-08-23T04:23:47;100145.41;;;15.75;100.00
70728;BME280;58314;47.722;17.652;2022-08-23T04:26:48;100140.06;;;15.75;100.00
70728;BME280;58314;47.722;17.652;2022-08-23T04:29:49;100141.53;;;15.79;100.00
70728;BME280;58314;47.722;17.652;2022-08-23T04:32:49;100140.81;;;15.77;100.00
70728;BME280;58314;47.722;17.652;2022-08-23T04:35:50;100138.31;;;15.74;100.00
70728;BME280;58314;47.722;17.652;2022-08-23T04:38:50;100145.72;;;15.84;100.00
70728;BME280;58314;47.722;17.652;2022-08-23T04:41:51;100138.34;;;15.87;100.00
70728;BME280;58314;47.722;17.652;2022-08-23T04:45:10;100145.97;;;15.92;100.00
70728;BME280;58314;47.722;17.652;2022-08-23T04:48:11;100142.56;;;15.90;100.00
70728;BME280;58314;47.722;17.652;2022-08-23T04:51:13;100151.09;;;15.95;100.00
70728;BME280;58314;47.722;17.652;2022-08-23T04:54:14;100152.09;;;15.94;100.00
70728;BME280;58314;47.722;17.652;2022-08-23T04:57:15;100151.84;;;15.97;100.00
70728;BME280;58314;47.722;17.652;2022-08-23T05:00:16;100155.38;;;15.97;100.00
70728;BME280;58314;47.722;17.652;2022-08-23T05:03:17;100158.47;;;16.04;100.00
70728;BME280;58314;47.722;17.652;2022-08-23T05:06:18;100162.75;;;15.94;100.00
70728;BME280;58314;47.722;17.652;2022-08-23T05:09:18;100165.88;;;16.12;100.00
70728;BME280;58314;47.722;17.652;2022-08-23T05:12:19;100170.59;;;16.08;100.00
70728;BME280;58314;47.722;17.652;2022-08-23T05:15:19;100175.22;;;16.06;100.00
70728;BME280;58314;47.722;17.652;2022-08-23T05:18:20;100170.59;;;16.08;100.00
70728;BME280;58314;47.722;17.652;2022-08-23T05:21:23;100167.88;;;16.21;100.00
70728;BME280;58314;47.722;17.652;2022-08-23T05:24:24;100169.59;;;16.22;100.00
70728;BME280;58314;47.722;17.652;2022-08-23T05:27:25;100167.53;;;16.26;100.00
70728;BME280;58314;47.722;17.652;2022-08-23T05:30:26;100169.41;;;16.36;100.00
70728;BME280;58314;47.722;17.652;2022-08-23T05:33:27;100173.94;;;16.47;100.00
70728;BME280;58314;47.722;17.652;2022-08-23T05:36:48;100163.94;;;16.62;100.00
70728;BME280;58314;47.722;17.652;2022-08-23T05:40:10;100166.31;;;16.78;100.00
70728;BME280;58314;47.722;17.652;2022-08-23T05:43:32;100176.09;;;16.90;100.00
70728;BME280;58314;47.722;17.652;2022-08-23T05:46:52;100175.97;;;16.92;100.00
70728;BME280;58314;47.722;17.652;2022-08-23T05:50:13;100170.41;;;16.95;100.00
70728;BME280;58314;47.722;17.652;2022-08-23T05:53:33;100170.78;;;17.02;100.00
70728;BME280;58314;47.722;17.652;2022-08-23T05:56:54;100172.69;;;16.88;100.00
70728;BME280;58314;47.722;17.652;2022-08-23T06:00:14;100171.25;;;16.96;100.00
70728;BME280;58314;47.722;17.652;2022-08-23T06:03:35;100175.25;;;16.90;100.00
70728;BME280;58314;47.722;17.652;2022-08-23T06:06:56;100178.31;;;16.97;100.00
70728;BME280;58314;47.722;17.652;2022-08-23T06:10:18;100169.94;;;17.12;100.00
70728;BME280;58314;47.722;17.652;2022-08-23T06:13:43;100177.75;;;17.27;100.00
70728;BME280;58314;47.722;17.652;2022-08-23T06:17:04;100178.97;;;17.23;100.00
70728;BME280;58314;47.722;17.652;2022-08-23T06:20:05;100184.78;;;17.17;100.00
70728;BME280;58314;47.722;17.652;2022-08-23T06:23:06;100194.28;;;17.21;100.00
70728;BME280;58314;47.722;17.652;2022-08-23T06:26:12;100209.47;;;17.31;100.00
70728;BME280;58314;47.722;17.652;2022-08-23T06:29:15;100206.19;;;17.28;100.00
70728;BME280;58314;47.722;17.652;2022-08-23T06:32:18;100206.41;;;17.25;100.00
70728;BME280;58314;47.722;17.652;2022-08-23T06:35:18;100208.63;;;17.31;100.00
70728;BME280;58314;47.722;17.652;2022-08-23T06:38:19;100203.66;;;17.49;100.00
70728;BME280;58314;47.722;17.652;2022-08-23T06:41:20;100201.00;;;17.72;100.00
70728;BME280;58314;47.722;17.652;2022-08-23T06:44:21;100202.59;;;17.97;100.00
70728;BME280;58314;47.722;17.652;2022-08-23T06:47:21;100203.44;;;17.86;100.00
70728;BME280;58314;47.722;17.652;2022-08-23T06:50:22;100198.56;;;17.91;100.00
70728;BME280;58314;47.722;17.652;2022-08-23T06:53:23;100208.56;;;17.78;100.00
70728;BME280;58314;47.722;17.652;2022-08-23T06:56:25;100218.88;;;17.82;100.00
70728;BME280;58314;47.722;17.652;2022-08-23T06:59:26;100216.56;;;17.78;100.00
70728;BME280;58314;47.722;17.652;2022-08-23T07:02:27;100214.13;;;17.75;100.00
70728;BME280;58314;47.722;17.652;2022-08-23T07:05:28;100220.38;;;17.86;100.00
70728;BME280;58314;47.722;17.652;2022-08-23T07:08:31;100231.19;;;18.08;100.00
70728;BME280;58314;47.722;17.652;2022-08-23T07:11:32;100229.50;;;17.95;100.00
70728;BME280;58314;47.722;17.652;2022-08-23T07:14:33;100235.66;;;18.07;100.00
70728;BME280;58314;47.722;17.652;2022-08-23T07:17:34;100245.16;;;18.00;100.00
70728;BME280;58314;47.722;17.652;2022-08-23T07:20:35;100240.31;;;18.16;100.00
70728;BME280;58314;47.722;17.652;2022-08-23T07:23:35;100247.00;;;17.99;100.00
70728;BME280;58314;47.722;17.652;2022-08-23T07:26:36;100246.41;;;17.96;100.00
70728;BME280;58314;47.722;17.652;2022-08-23T07:29:39;100250.88;;;18.06;100.00
70728;BME280;58314;47.722;17.652;2022-08-23T07:32:39;100257.34;;;18.04;100.00
70728;BME280;58314;47.722;17.652;2022-08-23T07:35:48;100270.97;;;18.01;100.00
70728;BME280;58314;47.722;17.652;2022-08-23T07:38:49;100259.91;;;17.94;100.00
70728;BME280;58314;47.722;17.652;2022-08-23T07:41:50;100259.28;;;18.13;100.00
70728;BME280;58314;47.722;17.652;2022-08-23T07:44:52;100271.59;;;18.04;100.00
70728;BME280;58314;47.722;17.652;2022-08-23T07:47:52;100270.84;;;18.14;100.00
70728;BME280;58314;47.722;17.652;2022-08-23T07:50:57;100274.88;;;18.19;100.00
70728;BME280;58314;47.722;17.652;2022-08-23T07:54:00;100283.25;;;18.03;100.00
70728;BME280;58314;47.722;17.652;2022-08-23T07:57:01;100286.44;;;18.20;100.00
70728;BME280;58314;47.722;17.652;2022-08-23T08:00:03;100283.63;;;18.21;100.00
70728;BME280;58314;47.722;17.652;2022-08-23T08:03:04;100291.50;;;18.34;100.00
70728;BME280;58314;47.722;17.652;2022-08-23T08:06:09;100297.13;;;18.42;100.00
70728;BME280;58314;47.722;17.652;2022-08-23T08:09:12;100299.78;;;18.42;100.00
70728;BME280;58314;47.722;17.652;2022-08-23T08:12:14;100302.22;;;18.46;100.00
70728;BME280;58314;47.722;17.652;2022-08-23T08:15:16;100310.75;;;18.51;100.00
70728;BME280;58314;47.722;17.652;2022-08-23T08:18:17;100307.03;;;18.74;100.00
70728;BME280;58314;47.722;17.652;2022-08-23T08:21:18;100301.28;;;18.90;100.00
70728;BME280;58314;47.722;17.652;2022-08-23T08:24:18;100314.34;;;18.72;100.00
70728;BME280;58314;47.722;17.652;2022-08-23T08:27:19;100309.22;;;18.80;100.00
70728;BME280;58314;47.722;17.652;2022-08-23T08:30:20;100312.59;;;18.94;100.00
70728;BME280;58314;47.722;17.652;2022-08-23T08:33:21;100312.69;;;19.04;98.98
70728;BME280;58314;47.722;17.652;2022-08-23T08:36:39;100319.72;;;19.16;98.28
70728;BME280;58314;47.722;17.652;2022-08-23T08:39:40;100314.97;;;19.41;97.78
70728;BME280;58314;47.722;17.652;2022-08-23T08:42:53;100317.22;;;19.56;97.77
70728;BME280;58314;47.722;17.652;2022-08-23T08:46:11;100324.03;;;19.82;96.96
70728;BME280;58314;47.722;17.652;2022-08-23T08:52:38;100333.34;;;19.78;95.62
70728;BME280;58314;47.722;17.652;2022-08-23T08:55:53;100331.63;;;19.77;96.43
70728;BME280;58314;47.722;17.652;2022-08-23T08:58:59;100329.13;;;19.85;98.18
70728;BME280;58314;47.722;17.652;2022-08-23T09:02:00;100330.69;;;19.45;93.40
70728;BME280;58314;47.722;17.652;2022-08-23T09:05:06;100329.00;;;19.86;93.58
70728;BME280;58314;47.722;17.652;2022-08-23T09:15:21;100333.19;;;20.00;92.16
70728;BME280;58314;47.722;17.652;2022-08-23T09:18:25;100331.28;;;20.22;89.87
70728;BME280;58314;47.722;17.652;2022-08-23T09:21:25;100332.88;;;20.65;89.12
70728;BME280;58314;47.722;17.652;2022-08-23T09:24:27;100325.69;;;20.75;89.13
70728;BME280;58314;47.722;17.652;2022-08-23T09:27:30;100322.75;;;20.98;88.26
70728;BME280;58314;47.722;17.652;2022-08-23T09:33:45;100320.97;;;21.94;80.92
70728;BME280;58314;47.722;17.652;2022-08-23T09:36:46;100321.66;;;22.34;83.21
70728;BME280;58314;47.722;17.652;2022-08-23T09:40:23;100327.69;;;22.28;82.79
70728;BME280;58314;47.722;17.652;2022-08-23T09:43:26;100327.56;;;22.93;79.09
70728;BME280;58314;47.722;17.652;2022-08-23T09:46:31;100329.66;;;22.81;78.71
70728;BME280;58314;47.722;17.652;2022-08-23T09:49:33;100331.03;;;22.85;77.82
70728;BME280;58314;47.722;17.652;2022-08-23T09:52:35;100324.84;;;22.57;81.30
70728;BME280;58314;47.722;17.652;2022-08-23T09:55:47;100332.06;;;22.56;77.00
70728;BME280;58314;47.722;17.652;2022-08-23T09:58:50;100337.63;;;22.27;78.00
70728;BME280;58314;47.722;17.652;2022-08-23T10:01:56;100335.31;;;22.23;79.15
70728;BME280;58314;47.722;17.652;2022-08-23T10:05:04;100339.97;;;22.40;79.38
70728;BME280;58314;47.722;17.652;2022-08-23T10:08:05;100340.72;;;22.23;80.19
70728;BME280;58314;47.722;17.652;2022-08-23T10:11:22;100344.19;;;21.95;82.10
70728;BME280;58314;47.722;17.652;2022-08-23T10:14:25;100351.19;;;21.78;83.61
70728;BME280;58314;47.722;17.652;2022-08-23T10:17:41;100351.94;;;21.51;83.13
70728;BME280;58314;47.722;17.652;2022-08-23T10:27:26;100352.75;;;21.22;83.42
70728;BME280;58314;47.722;17.652;2022-08-23T10:47:18;100351.31;;;22.34;77.85
70728;BME280;58314;47.722;17.652;2022-08-23T10:50:31;100346.44;;;22.47;79.67
70728;BME280;58314;47.722;17.652;2022-08-23T10:53:46;100342.22;;;22.90;76.11
70728;BME280;58314;47.722;17.652;2022-08-23T10:56:50;100351.69;;;22.49;77.56
70728;BME280;58314;47.722;17.652;2022-08-23T10:59:51;100357.34;;;22.55;79.31
70728;BME280;58314;47.722;17.652;2022-08-23T11:09:46;100336.97;;;22.89;74.62
70728;BME280;58314;47.722;17.652;2022-08-23T11:19:11;100358.03;;;22.58;77.53
70728;BME280;58314;47.722;17.652;2022-08-23T11:22:20;100356.03;;;22.32;80.09
70728;BME280;58314;47.722;17.652;2022-08-23T11:35:02;100375.31;;;21.51;81.60
70728;BME280;58314;47.722;17.652;2022-08-23T11:38:05;100366.94;;;21.54;83.54
70728;BME280;58314;47.722;17.652;2022-08-23T11:41:22;100371.22;;;21.56;86.18
70728;BME280;58314;47.722;17.652;2022-08-23T11:44:39;100379.44;;;21.55;84.13
70728;BME280;58314;47.722;17.652;2022-08-23T11:47:42;100375.63;;;21.48;83.76
70728;BME280;58314;47.722;17.652;2022-08-23T12:00:24;100388.28;;;21.06;85.92
70728;BME280;58314;47.722;17.652;2022-08-23T12:06:52;100391.25;;;20.94;88.21
70728;BME280;58314;47.722;17.652;2022-08-23T12:09:56;100393.88;;;20.74;87.93
70728;BME280;58314;47.722;17.652;2022-08-23T12:19:33;100405.59;;;20.63;89.61
70728;BME280;58314;47.722;17.652;2022-08-23T12:26:13;100401.81;;;20.45;89.63
70728;BME280;58314;47.722;17.652;2022-08-23T12:29:45;100394.88;;;20.42;91.13
70728;BME280;58314;47.722;17.652;2022-08-23T12:33:24;100403.16;;;20.29;91.97
70728;BME280;58314;47.722;17.652;2022-08-23T12:36:44;100404.53;;;20.24;89.78
70728;BME280;58314;47.722;17.652;2022-08-23T12:39:51;100396.41;;;20.45;91.94
70728;BME280;58314;47.722;17.652;2022-08-23T12:43:05;100399.84;;;20.47;92.94
70728;BME280;58314;47.722;17.652;2022-08-23T12:46:07;100391.41;;;20.61;90.17
70728;BME280;58314;47.722;17.652;2022-08-23T12:49:21;100385.72;;;20.55;88.98
70728;BME280;58314;47.722;17.652;2022-08-23T12:52:29;100388.28;;;20.56;89.52
70728;BME280;58314;47.722;17.652;2022-08-23T12:55:34;100390.63;;;20.71;89.89
70728;BME280;58314;47.722;17.652;2022-08-23T12:58:38;100384.69;;;20.77;86.84
70728;BME280;58314;47.722;17.652;2022-08-23T13:01:45;100389.97;;;20.98;87.75
70728;BME280;58314;47.722;17.652;2022-08-23T13:04:46;100383.50;;;21.10;86.73
70728;BME280;58314;47.722;17.652;2022-08-23T13:07:46;100381.78;;;20.99;87.49
70728;BME280;58314;47.722;17.652;2022-08-23T13:10:48;100380.25;;;21.26;85.52
70728;BME280;58314;47.722;17.652;2022-08-23T13:13:49;100370.50;;;21.25;86.88
70728;BME280;58314;47.722;17.652;2022-08-23T13:16:49;100374.00;;;21.45;84.83
70728;BME280;58314;47.722;17.652;2022-08-23T13:19:53;100377.78;;;22.01;83.46
70728;BME280;58314;47.722;17.652;2022-08-23T13:23:06;100372.97;;;23.07;76.70
70728;BME280;58314;47.722;17.652;2022-08-23T13:26:39;100374.72;;;24.15;69.79
70728;BME280;58314;47.722;17.652;2022-08-23T13:29:57;100373.03;;;26.78;62.52
70728;BME280;58314;47.722;17.652;2022-08-23T13:36:19;100368.34;;;28.41;54.80
70728;BME280;58314;47.722;17.652;2022-08-23T13:39:20;100368.44;;;26.47;60.95
70728;BME280;58314;47.722;17.652;2022-08-23T13:42:24;100378.50;;;26.22;64.32
70728;BME280;58314;47.722;17.652;2022-08-23T13:45:31;100368.81;;;24.96;67.40
70728;BME280;58314;47.722;17.652;2022-08-23T13:48:33;100367.31;;;25.02;66.71
70728;BME280;58314;47.722;17.652;2022-08-23T13:51:37;100368.91;;;24.78;67.35
70728;BME280;58314;47.722;17.652;2022-08-23T13:54:38;100377.25;;;24.51;69.61
70728;BME280;58314;47.722;17.652;2022-08-23T13:57:39;100369.44;;;24.39;70.14
70728;BME280;58314;47.722;17.652;2022-08-23T14:00:40;100370.75;;;24.01;71.23
70728;BME280;58314;47.722;17.652;2022-08-23T14:03:42;100361.53;;;23.94;71.75
70728;BME280;58314;47.722;17.652;2022-08-23T14:06:43;100370.47;;;23.50;70.48
70728;BME280;58314;47.722;17.652;2022-08-23T14:09:44;100366.00;;;23.59;72.67
70728;BME280;58314;47.722;17.652;2022-08-23T14:12:45;100365.38;;;23.83;71.71
70728;BME280;58314;47.722;17.652;2022-08-23T14:15:46;100364.69;;;23.45;71.04
70728;BME280;58314;47.722;17.652;2022-08-23T14:18:47;100373.59;;;23.37;72.76
70728;BME280;58314;47.722;17.652;2022-08-23T14:21:48;100372.88;;;23.17;76.77
70728;BME280;58314;47.722;17.652;2022-08-23T14:24:48;100369.09;;;22.82;77.74
70728;BME280;58314;47.722;17.652;2022-08-23T14:27:49;100371.78;;;22.64;77.82
70728;BME280;58314;47.722;17.652;2022-08-23T14:30:50;100382.19;;;22.77;76.74
70728;BME280;58314;47.722;17.652;2022-08-23T14:33:50;100385.09;;;22.93;77.37
70728;BME280;58314;47.722;17.652;2022-08-23T14:36:52;100384.88;;;22.49;78.35
70728;BME280;58314;47.722;17.652;2022-08-23T14:39:52;100388.91;;;22.35;78.25
70728;BME280;58314;47.722;17.652;2022-08-23T14:42:53;100388.38;;;22.22;81.92
70728;BME280;58314;47.722;17.652;2022-08-23T14:45:55;100384.38;;;22.26;80.13
70728;BME280;58314;47.722;17.652;2022-08-23T14:48:56;100387.09;;;22.16;80.31
70728;BME280;58314;47.722;17.652;2022-08-23T14:51:57;100382.69;;;22.35;77.98
70728;BME280;58314;47.722;17.652;2022-08-23T14:54:58;100381.22;;;22.50;78.30
70728;BME280;58314;47.722;17.652;2022-08-23T14:57:58;100379.88;;;22.64;77.43
70728;BME280;58314;47.722;17.652;2022-08-23T15:00:59;100379.72;;;22.28;79.32
70728;BME280;58314;47.722;17.652;2022-08-23T15:04:00;100377.56;;;22.42;80.23
70728;BME280;58314;47.722;17.652;2022-08-23T15:07:03;100382.97;;;22.32;78.37
70728;BME280;58314;47.722;17.652;2022-08-23T15:10:04;100387.66;;;22.40;79.02
70728;BME280;58314;47.722;17.652;2022-08-23T15:13:06;100384.84;;;22.31;79.32
70728;BME280;58314;47.722;17.652;2022-08-23T15:16:08;100382.63;;;21.97;81.81
70728;BME280;58314;47.722;17.652;2022-08-23T15:19:09;100381.31;;;22.11;84.13
70728;BME280;58314;47.722;17.652;2022-08-23T15:22:10;100375.25;;;21.99;80.48
70728;BME280;58314;47.722;17.652;2022-08-23T15:25:12;100375.41;;;21.78;82.17
70728;BME280;58314;47.722;17.652;2022-08-23T15:28:15;100369.75;;;21.81;81.44
70728;BME280;58314;47.722;17.652;2022-08-23T15:31:17;100379.38;;;21.94;82.92
70728;BME280;58314;47.722;17.652;2022-08-23T15:34:18;100376.81;;;22.02;81.75
70728;BME280;58314;47.722;17.652;2022-08-23T15:37:20;100366.50;;;22.25;80.89
70728;BME280;58314;47.722;17.652;2022-08-23T15:40:22;100359.00;;;22.84;79.05
70728;BME280;58314;47.722;17.652;2022-08-23T15:43:23;100368.13;;;24.17;72.13
70728;BME280;58314;47.722;17.652;2022-08-23T15:46:24;100362.78;;;26.09;65.56
70728;BME280;58314;47.722;17.652;2022-08-23T15:49:26;100358.66;;;27.55;59.64
70728;BME280;58314;47.722;17.652;2022-08-23T15:52:27;100358.06;;;27.83;57.75
70728;BME280;58314;47.722;17.652;2022-08-23T15:55:31;100359.13;;;27.36;59.84
70728;BME280;58314;47.722;17.652;2022-08-23T15:58:31;100354.22;;;26.77;59.23
70728;BME280;58314;47.722;17.652;2022-08-23T16:01:32;100353.94;;;27.49;57.87
70728;BME280;58314;47.722;17.652;2022-08-23T16:04:35;100361.78;;;27.44;58.52
70728;BME280;58314;47.722;17.652;2022-08-23T16:07:36;100356.88;;;26.45;61.53
70728;BME280;58314;47.722;17.652;2022-08-23T16:10:39;100364.91;;;24.99;66.41
70728;BME280;58314;47.722;17.652;2022-08-23T16:13:42;100373.44;;;24.27;71.66
70728;BME280;58314;47.722;17.652;2022-08-23T16:16:43;100372.25;;;23.59;71.42
70728;BME280;58314;47.722;17.652;2022-08-23T16:19:47;100384.28;;;23.83;73.03
70728;BME280;58314;47.722;17.652;2022-08-23T16:22:48;100386.56;;;24.99;68.80
70728;BME280;58314;47.722;17.652;2022-08-23T16:25:49;100396.97;;;24.69;69.56
70728;BME280;58314;47.722;17.652;2022-08-23T16:28:52;100397.00;;;23.73;71.27
70728;BME280;58314;47.722;17.652;2022-08-23T16:31:53;100399.56;;;23.56;72.62
70728;BME280;58314;47.722;17.652;2022-08-23T16:34:53;100391.88;;;22.98;76.35
70728;BME280;58314;47.722;17.652;2022-08-23T16:37:54;100403.44;;;22.90;76.35
70728;BME280;58314;47.722;17.652;2022-08-23T16:40:55;100401.47;;;22.82;76.56
70728;BME280;58314;47.722;17.652;2022-08-23T16:43:56;100399.78;;;22.81;75.52
70728;BME280;58314;47.722;17.652;2022-08-23T16:46:57;100415.44;;;22.78;75.94
70728;BME280;58314;47.722;17.652;2022-08-23T16:49:58;100404.56;;;22.60;78.32
70728;BME280;58314;47.722;17.652;2022-08-23T16:52:58;100409.16;;;22.49;79.31
70728;BME280;58314;47.722;17.652;2022-08-23T16:55:59;100405.75;;;22.47;78.30
70728;BME280;58314;47.722;17.652;2022-08-23T16:59:01;100406.00;;;22.07;79.39
70728;BME280;58314;47.722;17.652;2022-08-23T17:02:03;100407.13;;;22.04;80.98
70728;BME280;58314;47.722;17.652;2022-08-23T17:05:07;100407.47;;;21.62;83.15
70728;BME280;58314;47.722;17.652;2022-08-23T17:08:08;100405.38;;;21.46;85.19
70728;BME280;58314;47.722;17.652;2022-08-23T17:11:12;100404.72;;;21.23;86.18